Thunder radar more information blitzortung!


Radar de pluja more information rain snow radar


Visita la nostra xarxa de llocs de meteo:

Template documentation
and downloads

And another site



No particular awareness of the weather is required.    There are no Weather-warnings

Pagina Historial Weather Underground text

Diari Resum Agost 13, 2017 Unitats:  Imperial    Mètric   Tant
« Previous Dia
SegĂźent Dia »
Diari Setmana Mensual Anual Personalitzada
  Maxima: Minima: Media:
Temperatura: TemperatureC °F 15.9 °F 24.7 °F
Punt de rosada: DewpointC °F 10.7 °F 14.4 °F
Humitat: Humidity % 39 % 54 %
Wind Speed: WindSpeedKMH mph 0.0 mph 6.4 mph
RĂ fegues de vent: WindSpeedGustKMH mph - -
Vent:- - SSW
Pression baro: PressurehPa in 1014.8 in -
Precipitacions: 0.0 in    
Historical Graphs
 
 
Dades de taula per Agost 13, 2017
Temps Temperatura Punt de rosada Pression baro Vent Wind Speed RĂ fegues de vent Humitat Rainfall Rate (Hourly)
TemperatureC °F DewpointC °F PressurehPa in Calm     Humidity % HourlyPrecipMM in
00:01 20.4 °F 12.1 °F 1019.9 in Calm     59 % 0.0 in
00:05 17.4 °F 11.9 °F 1017.8 in WNW 1.6 mph 1.6 mph 70 % 0.0 in
00:06 20.4 °F 12.1 °F 1019.9 in Calm     59 % 0.0 in
00:11 20.4 °F 12.1 °F 1019.9 in Calm     59 % 0.0 in
00:15 17.4 °F 11.9 °F 1017.8 in Calm   1.6 mph 70 % 0.0 in
00:16 20.4 °F 12.4 °F 1019.9 in Calm     60 % 0.0 in
00:21 20.3 °F 12.0 °F 1019.9 in WNW 1.4 mph   59 % 0.0 in
00:25 17.1 °F 11.4 °F 1017.8 in Calm   1.6 mph 69 % 0.0 in
00:26 20.3 °F 12.3 °F 1019.9 in Calm     60 % 0.0 in
00:31 20.3 °F 12.3 °F 1019.9 in Calm     60 % 0.0 in
00:35 17.0 °F 11.5 °F 1017.8 in Calm   1.6 mph 70 % 0.0 in
00:36 20.2 °F 12.2 °F 1019.9 in Calm     60 % 0.0 in
00:45 16.7 °F 11.4 °F 1017.8 in Calm     71 % 0.0 in
00:55 16.6 °F 11.1 °F 1016.8 in NE 1.6 mph 1.6 mph 70 % 0.0 in
01:05 16.5 °F 11.0 °F 1017.8 in Calm   1.6 mph 70 % 0.0 in
01:15 16.5 °F 11.2 °F 1017.8 in Calm   1.6 mph 71 % 0.0 in
01:25 16.5 °F 11.2 °F 1016.8 in Calm     71 % 0.0 in
01:35 16.4 °F 11.1 °F 1017.8 in Calm   1.6 mph 71 % 0.0 in
01:45 16.2 °F 10.7 °F 1017.8 in WSW 1.6 mph 3.2 mph 70 % 0.0 in
01:55 16.0 °F 10.7 °F 1017.8 in Calm   1.6 mph 71 % 0.0 in
02:05 16.0 °F 10.7 °F 1017.8 in WSW 3.2 mph 3.2 mph 71 % 0.0 in
02:15 16.0 °F 10.9 °F 1017.8 in Calm   1.6 mph 72 % 0.0 in
02:25 15.9 °F 10.8 °F 1017.8 in Calm     72 % 0.0 in
02:35 16.0 °F 10.9 °F 1017.8 in WSW 1.6 mph 3.2 mph 72 % 0.0 in
02:45 16.5 °F 11.4 °F 1017.8 in Calm   1.6 mph 72 % 0.0 in
02:55 16.9 °F 11.6 °F 1017.8 in SSW 1.6 mph 3.2 mph 71 % 0.0 in
03:05 17.9 °F 12.1 °F 1018.8 in Calm     69 % 0.0 in
03:15 17.8 °F 11.8 °F 1018.8 in SW 1.6 mph 3.2 mph 68 % 0.0 in
03:25 17.5 °F 11.3 °F 1017.8 in SW 1.6 mph 3.2 mph 67 % 0.0 in
03:35 18.0 °F 12.0 °F 1018.8 in SW 1.6 mph 3.2 mph 68 % 0.0 in
03:45 18.3 °F 12.1 °F 1018.8 in SW 1.6 mph 3.2 mph 67 % 0.0 in
03:55 19.0 °F 12.3 °F 1018.8 in SW 3.2 mph 3.2 mph 65 % 0.0 in
04:05 19.4 °F 12.7 °F 1018.8 in SW 3.2 mph 3.2 mph 65 % 0.0 in
04:15 20.4 °F 13.3 °F 1018.8 in SSW 1.6 mph 1.6 mph 64 % 0.0 in
04:25 21.2 °F 13.6 °F 1018.8 in South 1.6 mph 3.2 mph 62 % 0.0 in
04:35 21.4 °F 13.6 °F 1018.8 in SW 1.6 mph 3.2 mph 61 % 0.0 in
04:45 22.3 °F 13.9 °F 1018.8 in NW 1.6 mph 3.2 mph 59 % 0.0 in
04:55 22.7 °F 14.0 °F 1018.8 in NNE 3.2 mph 8.0 mph 58 % 0.0 in
05:05 22.8 °F 13.8 °F 1018.8 in ENE 3.2 mph 4.8 mph 57 % 0.0 in
05:15 23.3 °F 14.3 °F 1018.8 in Calm   4.8 mph 57 % 0.0 in
05:25 24.0 °F 14.4 °F 1018.8 in ESE 1.6 mph 3.2 mph 55 % 0.0 in
05:35 24.6 °F 14.7 °F 1018.8 in ESE 1.6 mph 4.8 mph 54 % 0.0 in
05:45 25.2 °F 14.7 °F 1018.8 in NE 1.6 mph 4.8 mph 52 % 0.0 in
10:46 24.7 °F 14.2 °F 1018.8 in North 5.6 mph 5.6 mph 52 % 0.0 in
10:47 24.7 °F 14.2 °F 1018.8 in North 5.6 mph 5.6 mph 52 % 0.0 in
10:52 24.9 °F 14.1 °F 1018.8 in ESE 3.9 mph 3.9 mph 51 % 0.0 in
10:57 25.4 °F 14.2 °F 1018.8 in WSW 5.3 mph 5.3 mph 50 % 0.0 in
11:02 25.4 °F 14.2 °F 1018.8 in SSW 3.7 mph 3.7 mph 50 % 0.0 in
11:07 26.0 °F 14.8 °F 1018.8 in ENE 3.7 mph 3.7 mph 50 % 0.0 in
11:12 25.6 °F 13.8 °F 1018.8 in ESE 6.1 mph 6.1 mph 48 % 0.0 in
11:17 25.9 °F 14.4 °F 1018.8 in ENE 7.4 mph 7.4 mph 49 % 0.0 in
11:22 26.0 °F 14.4 °F 1018.8 in East 3.9 mph 3.9 mph 49 % 0.0 in
11:27 26.7 °F 15.1 °F 1018.8 in WSW 3.7 mph 3.7 mph 49 % 0.0 in
11:32 26.8 °F 14.9 °F 1018.8 in East 3.9 mph 3.9 mph 48 % 0.0 in
11:37 27.1 °F 14.8 °F 1018.8 in SSE 1.9 mph 1.9 mph 47 % 0.0 in
11:42 27.7 °F 14.7 °F 1018.8 in SSE 5.6 mph 5.6 mph 45 % 0.0 in
11:47 27.9 °F 15.2 °F 1018.8 in SE 3.7 mph 3.7 mph 46 % 0.0 in
11:52 28.1 °F 15.4 °F 1018.8 in ESE 4.2 mph 4.2 mph 46 % 0.0 in
11:57 27.9 °F 14.9 °F 1018.8 in SE 5.6 mph 5.6 mph 45 % 0.0 in
12:02 27.4 °F 14.8 °F 1018.8 in WSW 5.6 mph 5.6 mph 46 % 0.0 in
12:07 27.5 °F 14.5 °F 1018.8 in SW 7.4 mph 7.4 mph 45 % 0.0 in
12:12 28.1 °F 15.1 °F 1018.8 in WSW 6.9 mph 6.9 mph 45 % 0.0 in
12:17 28.3 °F 15.2 °F 1018.8 in East 7.4 mph 7.4 mph 45 % 0.0 in
12:22 27.9 °F 14.5 °F 1018.8 in East 5.6 mph 5.8 mph 44 % 0.0 in
12:27 28.3 °F 15.2 °F 1018.8 in ESE 5.6 mph 5.6 mph 45 % 0.0 in
12:32 28.2 °F 15.2 °F 1018.8 in West 7.4 mph 7.4 mph 45 % 0.0 in
12:37 28.5 °F 15.4 °F 1018.8 in WSW 3.7 mph 3.9 mph 45 % 0.0 in
12:42 29.4 °F 15.5 °F 1018.8 in South 5.6 mph 5.6 mph 43 % 0.0 in
12:47 28.9 °F 15.8 °F 1017.8 in ESE 7.4 mph 7.4 mph 45 % 0.0 in
12:52 29.2 °F 15.7 °F 1017.8 in South 5.3 mph 5.3 mph 44 % 0.0 in
12:57 29.2 °F 16.1 °F 1017.8 in ESE 11.1 mph 11.1 mph 45 % 0.0 in
13:02 28.2 °F 15.5 °F 1016.8 in ESE 9.3 mph 9.3 mph 46 % 0.0 in
13:07 28.4 °F 16.0 °F 1016.8 in ENE 9.3 mph 9.3 mph 47 % 0.0 in
13:12 27.8 °F 15.4 °F 1016.8 in ENE 14.8 mph 14.8 mph 47 % 0.0 in
13:17 28.5 °F 16.4 °F 1017.8 in ESE 10.0 mph 10.0 mph 48 % 0.0 in
13:22 28.3 °F 16.2 °F 1017.8 in East 11.1 mph 11.4 mph 48 % 0.0 in
13:27 27.9 °F 16.2 °F 1017.8 in SSE 13.0 mph 13.0 mph 49 % 0.0 in
13:32 27.6 °F 16.2 °F 1017.8 in ESE 11.1 mph 11.1 mph 50 % 0.0 in
13:37 27.3 °F 15.9 °F 1017.8 in East 13.0 mph 13.0 mph 50 % 0.0 in
13:42 27.1 °F 16.1 °F 1017.8 in ESE 14.8 mph 14.8 mph 51 % 0.0 in
13:47 27.1 °F 16.1 °F 1016.8 in ESE 13.0 mph 13.0 mph 51 % 0.0 in
13:52 27.7 °F 16.7 °F 1016.8 in East 11.1 mph 11.1 mph 51 % 0.0 in
13:57 27.7 °F 16.7 °F 1016.8 in ESE 24.1 mph 24.1 mph 51 % 0.0 in
14:02 27.3 °F 15.9 °F 1017.8 in ESE 16.7 mph 16.7 mph 50 % 0.0 in
14:07 27.4 °F 16.4 °F 1017.8 in ENE 9.7 mph 9.7 mph 51 % 0.0 in
14:12 27.4 °F 16.4 °F 1017.8 in ESE 13.0 mph 13.0 mph 51 % 0.0 in
14:17 27.2 °F 16.2 °F 1017.8 in NNE 13.0 mph 13.0 mph 51 % 0.0 in
14:22 27.1 °F 16.1 °F 1017.8 in ESE 14.8 mph 14.8 mph 51 % 0.0 in
14:27 27.2 °F 16.2 °F 1017.8 in SE 10.0 mph 10.0 mph 51 % 0.0 in
14:32 27.1 °F 16.1 °F 1017.8 in East 9.3 mph 9.3 mph 51 % 0.0 in
14:37 27.6 °F 16.6 °F 1017.8 in ESE 16.7 mph 16.7 mph 51 % 0.0 in
14:42 28.2 °F 16.8 °F 1017.8 in SE 5.6 mph 5.6 mph 50 % 0.0 in
14:47 29.5 °F 16.7 °F 1017.8 in SSE 7.4 mph 7.4 mph 46 % 0.0 in
14:52 29.8 °F 16.6 °F 1017.8 in SW 13.0 mph 13.0 mph 45 % 0.0 in
14:57 29.8 °F 16.2 °F 1017.8 in SW 20.4 mph 20.4 mph 44 % 0.0 in
15:02 30.0 °F 16.1 °F 1017.8 in SW 16.7 mph 16.7 mph 43 % 0.0 in
15:07 29.8 °F 15.5 °F 1017.8 in SW 7.9 mph 7.9 mph 42 % 0.0 in
15:12 30.6 °F 15.8 °F 1017.8 in SW 5.6 mph 5.6 mph 41 % 0.0 in
15:17 30.1 °F 15.4 °F 1017.8 in WSW 14.8 mph 14.8 mph 41 % 0.0 in
15:22 30.1 °F 15.0 °F 1017.8 in SW 7.4 mph 7.4 mph 40 % 0.0 in
15:27 29.8 °F 14.7 °F 1017.8 in SSW 14.8 mph 14.8 mph 40 % 0.0 in
15:32 29.9 °F 14.8 °F 1016.8 in WSW 9.3 mph 9.3 mph 40 % 0.0 in
15:37 30.7 °F 15.6 °F 1016.8 in SE 4.2 mph 4.2 mph 40 % 0.0 in
15:42 30.7 °F 15.6 °F 1016.8 in SW 13.0 mph 13.0 mph 40 % 0.0 in
15:47 30.9 °F 15.7 °F 1016.8 in SSW 13.0 mph 13.0 mph 40 % 0.0 in
15:52 30.5 °F 15.4 °F 1016.8 in SSW 14.8 mph 14.8 mph 40 % 0.0 in
15:57 30.2 °F 15.1 °F 1016.8 in South 7.4 mph 7.4 mph 40 % 0.0 in
16:02 30.2 °F 15.1 °F 1016.8 in West 11.1 mph 11.1 mph 40 % 0.0 in
16:07 30.3 °F 15.2 °F 1016.8 in WSW 14.8 mph 14.8 mph 40 % 0.0 in
16:12 30.4 °F 15.3 °F 1016.8 in SW 11.9 mph 11.9 mph 40 % 0.0 in
16:17 30.0 °F 14.6 °F 1016.8 in WSW 16.7 mph 16.7 mph 39 % 0.0 in
16:22 30.0 °F 14.6 °F 1016.8 in SW 14.8 mph 14.8 mph 39 % 0.0 in
16:27 30.2 °F 14.7 °F 1016.8 in West 14.8 mph 14.8 mph 39 % 0.0 in
16:32 30.2 °F 14.7 °F 1016.8 in SW 14.8 mph 14.8 mph 39 % 0.0 in
16:37 30.1 °F 14.6 °F 1016.8 in SW 11.1 mph 11.1 mph 39 % 0.0 in
16:42 29.7 °F 14.3 °F 1016.8 in SSW 14.8 mph 14.8 mph 39 % 0.0 in
16:47 29.9 °F 14.4 °F 1016.8 in SSW 13.0 mph 13.0 mph 39 % 0.0 in
16:52 30.2 °F 14.7 °F 1016.8 in SW 11.1 mph 11.1 mph 39 % 0.0 in
16:57 30.0 °F 14.6 °F 1016.8 in SW 9.5 mph 9.5 mph 39 % 0.0 in
16:59 30.0 °F 14.6 °F 1015.8 in WNW 9.5 mph 9.5 mph 39 % 0.0 in
17:04 29.9 °F 14.4 °F 1015.8 in SW 9.3 mph 9.3 mph 39 % 0.0 in
17:09 29.9 °F 14.4 °F 1015.8 in WSW 11.1 mph 11.1 mph 39 % 0.0 in
17:14 29.6 °F 14.2 °F 1015.8 in WSW 14.8 mph 14.8 mph 39 % 0.0 in
17:19 29.4 °F 14.4 °F 1015.8 in SW 13.0 mph 13.0 mph 40 % 0.0 in
17:24 29.4 °F 14.4 °F 1015.8 in SSW 11.1 mph 11.1 mph 40 % 0.0 in
17:29 29.5 °F 14.5 °F 1015.8 in SW 14.8 mph 14.8 mph 40 % 0.0 in
17:34 29.6 °F 14.9 °F 1015.8 in WSW 7.9 mph 7.9 mph 41 % 0.0 in
17:39 29.7 °F 15.1 °F 1015.8 in SW 6.1 mph 6.1 mph 41 % 0.0 in
17:44 29.5 °F 14.9 °F 1015.8 in SW 11.1 mph 11.1 mph 41 % 0.0 in
17:49 29.3 °F 14.7 °F 1015.8 in WSW 7.4 mph 7.4 mph 41 % 0.0 in
17:54 29.3 °F 14.7 °F 1015.8 in SW 13.0 mph 13.0 mph 41 % 0.0 in
17:59 29.1 °F 14.9 °F 1015.8 in SW 6.9 mph 6.9 mph 42 % 0.0 in
18:04 29.2 °F 14.9 °F 1015.8 in WSW 13.0 mph 13.0 mph 42 % 0.0 in
18:09 29.3 °F 15.1 °F 1015.8 in SW 9.3 mph 9.3 mph 42 % 0.0 in
18:14 29.0 °F 14.8 °F 1015.8 in South 9.3 mph 9.3 mph 42 % 0.0 in
18:19 28.6 °F 14.8 °F 1015.8 in SW 14.8 mph 14.8 mph 43 % 0.0 in
18:24 28.6 °F 14.8 °F 1015.8 in South 7.4 mph 7.4 mph 43 % 0.0 in
18:29 28.9 °F 15.1 °F 1015.8 in WSW 11.9 mph 11.9 mph 43 % 0.0 in
18:34 28.6 °F 14.8 °F 1015.8 in WSW 11.4 mph 11.4 mph 43 % 0.0 in
18:39 28.4 °F 14.9 °F 1015.8 in SW 11.1 mph 11.1 mph 44 % 0.0 in
18:44 28.4 °F 14.9 °F 1015.8 in SW 13.0 mph 13.0 mph 44 % 0.0 in
18:49 28.6 °F 15.2 °F 1015.8 in SSW 5.8 mph 5.8 mph 44 % 0.0 in
18:54 28.1 °F 14.3 °F 1015.8 in SSW 14.8 mph 14.8 mph 43 % 0.0 in
18:59 28.1 °F 14.3 °F 1014.8 in SW 12.6 mph 12.6 mph 43 % 0.0 in
19:04 27.8 °F 14.4 °F 1014.8 in SW 9.5 mph 9.5 mph 44 % 0.0 in
19:09 27.9 °F 14.5 °F 1014.8 in SSW 5.6 mph 5.6 mph 44 % 0.0 in
19:14 27.9 °F 14.5 °F 1015.8 in SW 9.5 mph 9.5 mph 44 % 0.0 in
19:15 21.7 °F 15.6 °F 1017.8 in Calm     68 % 0.0 in
19:19 27.6 °F 14.2 °F 1015.8 in WSW 9.5 mph 9.5 mph 44 % 0.0 in
19:24 27.6 °F 14.2 °F 1015.8 in SSW 7.4 mph 7.4 mph 44 % 0.0 in
19:25 21.6 °F 15.4 °F 1017.8 in WSW 1.6 mph 3.2 mph 68 % 0.0 in
19:29 27.5 °F 14.5 °F 1015.8 in WSW 5.6 mph 5.6 mph 45 % 0.0 in
19:34 27.3 °F 14.3 °F 1015.8 in SW 9.3 mph 9.3 mph 45 % 0.0 in
19:35 21.6 °F 15.7 °F 1017.8 in Calm   3.2 mph 69 % 0.0 in
19:39 27.0 °F 14.1 °F 1015.8 in South 13.0 mph 13.0 mph 45 % 0.0 in
19:44 27.0 °F 14.1 °F 1015.8 in SSE 11.4 mph 11.4 mph 45 % 0.0 in
19:45 21.4 °F 15.5 °F 1017.8 in WSW 1.6 mph 3.2 mph 69 % 0.0 in
19:49 26.7 °F 14.1 °F 1015.8 in SW 13.0 mph 13.0 mph 46 % 0.0 in
19:54 26.6 °F 14.1 °F 1015.8 in SW 10.3 mph 10.3 mph 46 % 0.0 in
19:55 21.2 °F 15.3 °F 1017.8 in Calm   1.6 mph 69 % 0.0 in
19:59 26.3 °F 14.1 °F 1015.8 in SSW 5.6 mph 5.6 mph 47 % 0.0 in
20:04 26.2 °F 14.0 °F 1015.8 in WSW 9.3 mph 9.3 mph 47 % 0.0 in
20:05 21.1 °F 15.4 °F 1017.8 in Calm     70 % 0.0 in
20:09 26.0 °F 14.1 °F 1015.8 in SSW 9.3 mph 9.3 mph 48 % 0.0 in
20:14 25.9 °F 14.1 °F 1015.8 in WSW 7.4 mph 7.4 mph 48 % 0.0 in
20:15 25.9 °F 14.1 °F 1015.8 in SW 4.7 mph 4.7 mph 48 % 0.0 in
20:20 25.7 °F 13.9 °F 1015.8 in SW 5.6 mph 5.6 mph 48 % 0.0 in
20:25 25.6 °F 13.8 °F 1015.8 in SSW 7.4 mph 7.4 mph 48 % 0.0 in
20:30 25.5 °F 14.0 °F 1014.8 in South 5.6 mph 5.6 mph 49 % 0.0 in
20:35 25.3 °F 13.8 °F 1014.8 in SW 5.6 mph 5.6 mph 49 % 0.0 in
20:40 25.2 °F 13.7 °F 1014.8 in SSW 7.4 mph 7.4 mph 49 % 0.0 in
20:45 25.0 °F 13.6 °F 1014.8 in SW 5.6 mph 5.6 mph 49 % 0.0 in
20:50 24.8 °F 13.7 °F 1014.8 in SW 7.4 mph 7.4 mph 50 % 0.0 in
20:55 24.6 °F 13.8 °F 1014.8 in WSW 5.6 mph 5.6 mph 51 % 0.0 in
21:00 24.5 °F 13.7 °F 1015.8 in SW 7.4 mph 7.4 mph 51 % 0.0 in
21:05 24.4 °F 13.9 °F 1015.8 in SW 7.4 mph 7.4 mph 52 % 0.0 in
21:10 24.3 °F 13.8 °F 1015.8 in SW 6.1 mph 6.1 mph 52 % 0.0 in
21:15 24.1 °F 13.9 °F 1015.8 in SW 9.0 mph 9.0 mph 53 % 0.0 in
21:20 23.9 °F 14.0 °F 1015.8 in SSW 5.6 mph 5.6 mph 54 % 0.0 in
21:25 23.8 °F 14.2 °F 1015.8 in West 5.6 mph 5.6 mph 55 % 0.0 in
21:30 23.7 °F 14.1 °F 1015.8 in WSW 3.7 mph 3.7 mph 55 % 0.0 in
21:35 23.6 °F 14.3 °F 1015.8 in WSW 3.7 mph 3.7 mph 56 % 0.0 in
21:40 23.4 °F 14.1 °F 1015.8 in WSW 3.9 mph 3.9 mph 56 % 0.0 in
21:45 23.3 °F 14.3 °F 1016.8 in WSW 4.2 mph 4.2 mph 57 % 0.0 in
21:50 23.1 °F 14.1 °F 1016.8 in SW 7.4 mph 7.4 mph 57 % 0.0 in
21:51 23.1 °F 14.1 °F 1016.8 in SW 3.7 mph 3.7 mph 57 % 0.0 in
21:55 19.8 °F 15.4 °F 1017.8 in Calm   3.2 mph 76 % 0.0 in
21:56 22.9 °F 14.2 °F 1016.8 in WSW 5.6 mph 5.6 mph 58 % 0.0 in
22:01 22.9 °F 14.4 °F 1016.8 in WSW 5.6 mph 5.6 mph 59 % 0.0 in
22:05 19.6 °F 15.3 °F 1017.8 in Calm     76 % 0.0 in
22:06 22.8 °F 14.4 °F 1016.8 in WSW 5.6 mph 5.6 mph 59 % 0.0 in
22:11 22.7 °F 14.6 °F 1016.8 in SSW 5.6 mph 5.6 mph 60 % 0.0 in
22:15 19.5 °F 15.3 °F 1017.8 in Calm     77 % 0.0 in
22:16 22.6 °F 14.4 °F 1017.8 in WSW 4.7 mph 4.7 mph 60 % 0.0 in
22:21 22.6 °F 14.7 °F 1017.8 in WSW 4.2 mph 4.2 mph 61 % 0.0 in
22:25 19.4 °F 15.3 °F 1017.8 in Calm     77 % 0.0 in
22:26 22.6 °F 14.7 °F 1017.8 in SW 7.4 mph 7.4 mph 61 % 0.0 in
22:31 22.5 °F 14.8 °F 1017.8 in SW 7.4 mph 7.4 mph 62 % 0.0 in
22:35 19.4 °F 15.3 °F 1016.8 in NE 1.6 mph 3.2 mph 77 % 0.0 in
22:36 22.5 °F 15.1 °F 1017.8 in SW 3.9 mph 3.9 mph 63 % 0.0 in
22:41 22.4 °F 15.0 °F 1017.8 in SW 4.2 mph 4.2 mph 63 % 0.0 in
22:45 19.3 °F 15.2 °F 1016.8 in Calm   1.6 mph 77 % 0.0 in
22:46 22.3 °F 15.2 °F 1017.8 in WSW 3.7 mph 3.7 mph 64 % 0.0 in
22:51 22.3 °F 15.2 °F 1017.8 in SSW 5.6 mph 5.6 mph 64 % 0.0 in
22:55 19.4 °F 15.3 °F 1016.8 in Calm     77 % 0.0 in
22:56 22.2 °F 15.1 °F 1017.8 in WSW 4.2 mph 4.2 mph 64 % 0.0 in
23:01 22.1 °F 14.9 °F 1016.8 in SW 5.6 mph 5.6 mph 64 % 0.0 in
23:05 19.3 °F 15.2 °F 1016.8 in Calm     77 % 0.0 in
23:06 22.1 °F 15.2 °F 1016.8 in SW 3.7 mph 3.7 mph 65 % 0.0 in
23:11 22.0 °F 15.1 °F 1016.8 in SSW 3.7 mph 3.7 mph 65 % 0.0 in
23:15 19.2 °F 15.3 °F 1016.8 in Calm     78 % 0.0 in
23:16 21.9 °F 15.3 °F 1017.8 in SW 3.7 mph 3.7 mph 66 % 0.0 in
23:21 21.9 °F 15.3 °F 1017.8 in WSW 3.7 mph 3.7 mph 66 % 0.0 in
23:25 19.0 °F 15.1 °F 1016.8 in Calm   3.2 mph 78 % 0.0 in
23:26 21.8 °F 15.4 °F 1017.8 in SW 2.3 mph 2.3 mph 67 % 0.0 in
23:31 21.7 °F 15.3 °F 1017.8 in SW 3.7 mph 3.7 mph 67 % 0.0 in
23:35 18.9 °F 15.4 °F 1016.8 in Calm     80 % 0.0 in
23:36 21.7 °F 15.3 °F 1017.8 in SW 1.9 mph 1.9 mph 67 % 0.0 in
23:41 21.7 °F 15.3 °F 1017.8 in SW 3.9 mph 3.9 mph 67 % 0.0 in
23:45 18.8 °F 15.3 °F 1016.8 in SW 1.6 mph 1.6 mph 80 % 0.0 in
23:46 21.7 °F 15.3 °F 1017.8 in West 3.7 mph 3.7 mph 67 % 0.0 in
23:51 21.7 °F 15.3 °F 1017.8 in WSW 3.2 mph 3.2 mph 67 % 0.0 in
23:55 18.8 °F 15.3 °F 1015.8 in Calm   1.6 mph 80 % 0.0 in
23:56 21.7 °F 15.3 °F 1017.8 in West 3.7 mph 3.7 mph 67 % 0.0 in
Meteo Sesrovires
Elogis d' Weather Underground - 1.5 mb

Guio original per  Jim McMurry - jmcmurry@mwt.net Adaptat per a la plantilla per  Wim van der Kuil - Leuven-Template.eu

Trobareu la nostra informacio del temps tambe a:

Weather Underground

AWEKAS